Latest Weather Observations for Inglewood

IDQ60801

Issued at 3:05 pm EST Thursday 31 July 2014 (issued every 30 minutes, with the page automatically refreshed every 10 minutes)

About weather observations | Map of weather stations | Latest weather observations for QLD | Other Formats
Station Details ID: 041097 Name: INGLEWOOD FOREST Lat: -28.34 Lon: 150.94 Height: 379.0 m
Data from the previous 72 hours. | See also: Recent months at Inglewood
Date/Time
EST
Temp
°C
App
Temp
°C
Dew
Point
Rel
Hum
%
Delta-T
°C
Wind Press
QNH
hPa
Press
MSL
hPa
Rain
since 9 am
mm
Dir
 
Spd
km/h
Gust
km/h
Spd
kts
Gust
kts
31/03:00pm - - - - - WNW 11 17 6 9 - - 0.0
31/02:30pm - - - - - W 13 20 7 11 - - 0.0
31/02:00pm - - - - - W 13 20 7 11 - - 0.0
31/01:30pm - - - - - W 17 28 9 15 - - 0.0
31/01:00pm - - - - - NW 17 32 9 17 - - 0.0
31/12:30pm - - - - - WNW 13 24 7 13 - - 0.0
31/12:00pm - - - - - NW 13 24 7 13 - - 0.0
31/11:30am - - - - - NNW 11 17 6 9 - - 0.0
31/11:00am - - - - - NW 11 20 6 11 - - 0.0
31/10:30am - - - - - NW 13 20 7 11 - - 0.0
31/10:00am - - - - - NW 17 28 9 15 - - 0.0
31/09:30am - - - - - N 9 15 5 8 - - 0.0
31/09:00am - - - - - NE 6 9 3 5 - - 0.0
31/08:30am - - - - - NE 7 9 4 5 - - 0.0
31/08:00am - - - - - NE 7 13 4 7 - - 0.0
31/07:30am - - - - - NE 11 13 6 7 - - 0.0
31/07:00am - - - - - NNE 11 17 6 9 - - 0.0
31/06:30am - - - - - NE 9 13 5 7 - - 0.0
31/06:00am - - - - - ENE 9 13 5 7 - - 0.0
31/05:30am - - - - - NE 9 15 5 8 - - 0.0
31/05:00am - - - - - ENE 11 13 6 7 - - 0.0
31/04:30am - - - - - ENE 13 19 7 10 - - 0.0
31/04:00am - - - - - ENE 11 15 6 8 - - 0.0
31/03:30am - - - - - NE 9 13 5 7 - - 0.0
31/03:00am - - - - - NE 9 11 5 6 - - 0.0
31/02:30am - - - - - ENE 11 15 6 8 - - 0.0
31/02:00am - - - - - ENE 11 13 6 7 - - 0.0
31/01:30am - - - - - ENE 9 13 5 7 - - 0.0
31/01:00am - - - - - NE 9 11 5 6 - - 0.0
31/12:30am - - - - - ENE 13 15 7 8 - - 0.0
31/12:00am - - - - - E 13 13 7 7 - - 0.0
 
Date/Time
EST
Temp
°C
App
Temp
°C
Dew
Point
Rel
Hum
%
Delta-T
°C
Wind Press
QNH
hPa
Press
MSL
hPa
Rain
since 9 am
mm
Dir
 
Spd
km/h
Gust
km/h
Spd
kts
Gust
kts
30/11:30pm - - - - - E 11 15 6 8 - - 0.0
30/11:00pm - - - - - S 7 9 4 5 - - 0.0
30/10:30pm - - - - - WSW 9 9 5 5 - - 0.0
30/10:00pm - - - - - W 9 11 5 6 - - 0.0
30/09:30pm - - - - - W 11 11 6 6 - - 0.0
30/09:00pm - - - - - WNW 11 13 6 7 - - 0.0
30/08:30pm - - - - - WNW 11 13 6 7 - - 0.0
30/08:00pm - - - - - WNW 11 13 6 7 - - 0.0
30/07:30pm - - - - - WNW 9 11 5 6 - - 0.0
30/07:00pm - - - - - W 9 11 5 6 - - 0.0
30/06:30pm - - - - - WSW 13 15 7 8 - - 0.0
30/06:00pm - - - - - WSW 11 13 6 7 - - 0.0
30/05:30pm - - - - - WSW 7 9 4 5 - - 0.0
30/05:00pm - - - - - SW 7 9 4 5 - - 0.0
30/04:30pm - - - - - SSW 9 13 5 7 - - 0.0
30/04:00pm - - - - - SW 7 13 4 7 - - 0.0
30/03:30pm - - - - - SW 9 17 5 9 - - 0.0
30/03:00pm - - - - - SSW 9 17 5 9 - - 0.0
30/02:30pm - - - - - WSW 13 24 7 13 - - 0.0
30/02:00pm - - - - - SSW 11 20 6 11 - - 0.0
30/01:30pm - - - - - SSE 9 20 5 11 - - 0.0
30/01:00pm - - - - - WSW 9 17 5 9 - - 0.0
30/12:30pm - - - - - SSE 11 22 6 12 - - 0.0
30/12:00pm - - - - - SE 9 17 5 9 - - 0.0
30/11:30am - - - - - SSW 9 17 5 9 - - 0.0
30/11:00am - - - - - S 9 15 5 8 - - 0.0
30/10:30am - - - - - SSE 7 11 4 6 - - 0.0
30/10:00am - - - - - E 7 11 4 6 - - 0.0
30/09:30am - - - - - E 9 15 5 8 - - 0.0
30/09:00am - - - - - ENE 11 17 6 9 - - 0.0
30/08:30am - - - - - ENE 11 15 6 8 - - 0.0
30/08:00am - - - - - ENE 11 15 6 8 - - 0.0
30/07:30am - - - - - E 13 15 7 8 - - 0.0
30/07:00am - - - - - ENE 13 15 7 8 - - 0.0
30/06:30am - - - - - ENE 11 15 6 8 - - 0.0
30/06:00am - - - - - ENE 13 15 7 8 - - 0.0
30/05:30am - - - - - ENE 9 13 5 7 - - 0.0
30/05:00am - - - - - ENE 13 15 7 8 - - 0.0
30/04:30am - - - - - E 13 13 7 7 - - 0.0
30/04:00am - - - - - ENE 13 13 7 7 - - 0.0
30/03:30am - - - - - E 13 15 7 8 - - 0.0
30/03:00am - - - - - ENE 13 15 7 8 - - 0.0
30/02:30am - - - - - E 13 15 7 8 - - 0.0
30/02:00am - - - - - ENE 13 15 7 8 - - 0.0
30/01:30am - - - - - ENE 13 13 7 7 - - 0.0
30/01:00am - - - - - ENE 11 15 6 8 - - 0.0
30/12:30am - - - - - ENE 13 13 7 7 - - 0.0
30/12:00am - - - - - E 13 15 7 8 - - 0.0
 
Date/Time
EST
Temp
°C
App
Temp
°C
Dew
Point
Rel
Hum
%
Delta-T
°C
Wind Press
QNH
hPa
Press
MSL
hPa
Rain
since 9 am
mm
Dir
 
Spd
km/h
Gust
km/h
Spd
kts
Gust
kts
29/11:30pm - - - - - ESE 11 15 6 8 - - 0.0
29/11:00pm - - - - - ESE 11 13 6 7 - - 0.0
29/10:30pm - - - - - SE 11 15 6 8 - - 0.0
29/10:00pm - - - - - SSE 11 13 6 7 - - 0.0
29/09:30pm - - - - - SSE 11 13 6 7 - - 0.0
29/09:00pm - - - - - S 7 9 4 5 - - 0.0
29/08:30pm - - - - - CALM 0 0 0 0 - - 0.0
29/08:00pm - - - - - CALM 0 0 0 0 - - 0.0
29/07:30pm - - - - - NW 6 7 3 4 - - 0.0
29/07:00pm - - - - - WNW 4 7 2 4 - - 0.0
29/06:30pm - - - - - W 4 6 2 3 - - 0.0
29/06:00pm - - - - - SSW 6 7 3 4 - - 0.0
29/05:30pm - - - - - SSW 6 7 3 4 - - 0.0
29/05:00pm - - - - - WSW 7 13 4 7 - - 0.0
29/04:30pm - - - - - SW 13 19 7 10 - - 0.0
29/04:00pm - - - - - SW 11 17 6 9 - - 0.0
29/03:30pm - - - - - SW 13 22 7 12 - - 0.0
29/03:00pm - - - - - WNW 9 20 5 11 - - 0.0
29/02:30pm - - - - - SW 11 22 6 12 - - 0.0
29/02:00pm - - - - - WSW 15 26 8 14 - - 0.0
29/01:30pm - - - - - SSW 15 24 8 13 - - 0.0
29/01:00pm - - - - - SW 15 28 8 15 - - 0.0
29/12:30pm - - - - - WSW 13 22 7 12 - - 0.0
29/12:00pm - - - - - SSE 11 19 6 10 - - 0.0
29/11:30am - - - - - S 11 19 6 10 - - 0.0
29/11:00am - - - - - S 13 20 7 11 - - 0.0
29/10:30am - - - - - SSE 11 20 6 11 - - 0.0
29/10:00am - - - - - SE 9 13 5 7 - - 0.0
29/09:30am - - - - - E 6 9 3 5 - - 0.0
29/09:00am - - - - - E 7 11 4 6 - - 0.0
29/08:30am - - - - - E 9 11 5 6 - - 0.0
29/08:00am - - - - - ENE 9 11 5 6 - - 0.0
29/07:30am - - - - - ENE 11 13 6 7 - - 0.0
29/07:00am - - - - - ENE 13 13 7 7 - - 0.0
29/06:30am - - - - - E 11 13 6 7 - - 0.0
29/06:00am - - - - - E 11 13 6 7 - - 0.0
29/05:30am - - - - - ENE 11 11 6 6 - - 0.0
29/05:00am - - - - - ENE 11 13 6 7 - - 0.0
29/04:30am - - - - - ENE 11 13 6 7 - - 0.0
29/04:00am - - - - - ENE 11 13 6 7 - - 0.0
29/03:30am - - - - - ENE 11 11 6 6 - - 0.0
29/03:00am - - - - - ENE 9 11 5 6 - - 0.0
29/02:30am - - - - - ENE 9 11 5 6 - - 0.0
29/02:00am - - - - - ENE 11 13 6 7 - - 0.0
29/01:30am - - - - - ENE 11 13 6 7 - - 0.0
29/01:00am - - - - - ENE 9 11 5 6 - - 0.0
29/12:30am - - - - - E 11 11 6 6 - - 0.0
29/12:00am - - - - - E 9 11 5 6 - - 0.0
 
Date/Time
EST
Temp
°C
App
Temp
°C
Dew
Point
Rel
Hum
%
Delta-T
°C
Wind Press
QNH
hPa
Press
MSL
hPa
Rain
since 9 am
mm
Dir
 
Spd
km/h
Gust
km/h
Spd
kts
Gust
kts
28/11:30pm - - - - - E 9 11 5 6 - - 0.0
28/11:00pm - - - - - E 9 9 5 5 - - 0.0
28/10:30pm - - - - - ESE 9 9 5 5 - - 0.0
28/10:00pm - - - - - SE 7 9 4 5 - - 0.0
28/09:30pm - - - - - S 7 9 4 5 - - 0.0
28/09:00pm - - - - - WSW 4 6 2 3 - - 0.0
28/08:30pm - - - - - SW 7 7 4 4 - - 0.0
28/08:00pm - - - - - WSW 7 9 4 5 - - 0.0
28/07:30pm - - - - - W 7 9 4 5 - - 0.0
28/07:00pm - - - - - WSW 7 9 4 5 - - 0.0
28/06:30pm - - - - - W 9 9 5 5 - - 0.0
28/06:00pm - - - - - W 7 9 4 5 - - 0.0
28/05:30pm - - - - - W 9 11 5 6 - - 0.0
28/05:00pm - - - - - W 9 15 5 8 - - 0.0
28/04:30pm - - - - - W 15 20 8 11 - - 0.0
28/04:00pm - - - - - WSW 11 20 6 11 - - 0.0
28/03:30pm - - - - - WSW 13 20 7 11 - - 0.0

Other Formats:

Comma delimited format used in spreadsheet applications
http://www.bom.gov.au/fwo/IDQ60801/IDQ60801.95573.axf

JavaScript Object Notation format (JSON) in row-major order
http://www.bom.gov.au/fwo/IDQ60801/IDQ60801.95573.json